Time;durP1;ratioP1;P1;durP2;ratioP2;P2;SDS_P1;SDS_P2;PMS_P1;PMS_P2;Temp;Humidity;BMP_temperature;BMP_pressure;BME280_temperature;BME280_humidity;BME280_pressure;Samples;Min_cycle;Max_cycle;Signal;HPM_P1;HPM_P2
2022/03/16 07:14:51;;;;;;;8.48;6.78;;;;;;;;;;10584915;27;20372;-85
2022/03/16 07:19:52;;;;;;;6.63;5.28;;;;;;;;;;10583206;28;20391;-85
2022/03/16 07:24:53;;;;;;;5.57;4.15;;;;;;;;;;10582203;28;20032;-84
2022/03/16 07:29:54;;;;;;;;;;;;;;;;;;10583511;28;20085;-85
2022/03/16 07:35:56;;;;;;;;;;;;;;;;;;;;;
2022/03/16 07:41:19;;;;;;;6.13;5.00;;;;;;;;;;10646053;27;20464;-84
2022/03/16 07:46:49;;;;;;;9.55;7.50;;;;;;;;;;10649785;27;20030;-84
2022/03/16 08:03:08;;;;;;;5.82;3.38;;;;;;;;;;10560515;28;20024;-85
2022/03/16 08:08:09;;;;;;;6.35;3.80;;;;;;;;;;10625320;27;20046;-83
2022/03/16 08:13:10;;;;;;;7.93;5.72;;;;;;;;;;10637445;27;20054;-80
2022/03/16 08:18:11;;;;;;;;;;;;;;;;;;10615220;27;20058;-79
2022/03/16 08:23:13;;;;;;;7.13;4.95;;;;;;;;;;10615117;27;19903;-80
2022/03/16 08:28:14;;;;;;;5.47;4.22;;;;;;;;;;10613940;27;20035;-80
2022/03/16 08:33:18;;;;;;;;;;;;;;;;;;10614483;27;20038;-81
2022/03/16 08:38:19;;;;;;;6.82;4.60;;;;;;;;;;10616135;27;19903;-81
2022/03/16 08:43:20;;;;;;;;;;;;;;;;;;10636286;27;20057;-80
2022/03/16 08:48:21;;;;;;;7.32;5.10;;;;;;;;;;10636069;27;19903;-80
2022/03/16 08:53:22;;;;;;;6.93;5.75;;;;;;;;;;10613134;27;20034;-79
2022/03/16 08:58:23;;;;;;;9.93;7.68;;;;;;;;;;10618196;27;20023;-80
2022/03/16 09:03:24;;;;;;;;;;;;;;;;;;10619019;27;20015;-82
2022/03/16 09:08:25;;;;;;;6.00;3.55;;;;;;;;;;10622525;27;19907;-82
2022/03/16 09:13:26;;;;;;;;;;;;;;;;;;10617398;27;20065;-82
2022/03/16 09:18:28;;;;;;;7.15;5.75;;;;;;;;;;10636179;27;19973;-81
2022/03/16 09:23:31;;;;;;;5.50;4.28;;;;;;;;;;10615493;27;20027;-83
2022/03/16 09:28:32;;;;;;;10.23;7.57;;;;;;;;;;10617766;27;20073;-83
2022/03/16 09:33:33;;;;;;;9.98;7.47;;;;;;;;;;10640538;27;20027;-82
2022/03/16 09:38:37;;;;;;;9.32;6.38;;;;;;;;;;10617102;27;20030;-82
2022/03/16 09:43:38;;;;;;;7.68;5.13;;;;;;;;;;10615968;27;20035;-83
2022/03/16 09:48:40;;;;;;;10.30;9.05;;;;;;;;;;10635253;27;20023;-82
2022/03/16 09:53:41;;;;;;;12.13;9.10;;;;;;;;;;10617340;27;20023;-82
2022/03/16 09:58:43;;;;;;;6.80;5.65;;;;;;;;;;10635617;27;20378;-82
2022/03/16 10:03:48;;;;;;;10.30;7.68;;;;;;;;;;10616972;27;20056;-82
2022/03/16 10:14:14;;;;;;;11.45;9.32;;;;;;;;;;10633961;27;20039;-83
2022/03/16 10:19:15;;;;;;;6.30;4.90;;;;;;;;;;10616911;27;20050;-82
2022/03/16 10:24:19;;;;;;;11.07;7.88;;;;;;;;;;10615983;27;20031;-82
2022/03/16 10:29:22;;;;;;;11.38;7.15;;;;;;;;;;10616307;27;20398;-84
2022/03/16 10:34:24;;;;;;;3.97;2.30;;;;;;;;;;10618303;27;20049;-84
2022/03/16 10:39:33;;;;;;;6.22;3.40;;;;;;;;;;10624212;27;20023;-83
2022/03/16 10:50:07;;;;;;;7.85;5.32;;;;;;;;;;10635269;27;20023;-80
2022/03/16 10:55:09;;;;;;;4.53;3.58;;;;;;;;;;10611598;27;20366;-80
2022/03/16 11:00:10;;;;;;;5.55;4.78;;;;;;;;;;10628592;27;20097;-80
2022/03/16 11:05:16;;;;;;;5.22;3.60;;;;;;;;;;10628968;28;20027;-80
2022/03/16 11:10:17;;;;;;;4.18;3.45;;;;;;;;;;10610006;28;20038;-80
2022/03/16 11:15:19;;;;;;;5.32;3.55;;;;;;;;;;10611201;28;20023;-80
2022/03/16 11:20:20;;;;;;;7.10;5.93;;;;;;;;;;10614540;28;20027;-84
2022/03/16 11:25:22;;;;;;;5.18;3.58;;;;;;;;;;10614820;28;20424;-83
2022/03/16 11:30:33;;;;;;;5.57;5.03;;;;;;;;;;10647510;22;20036;-82
2022/03/16 11:35:35;;;;;;;6.80;4.43;;;;;;;;;;10578680;28;20058;-81
2022/03/16 11:40:38;;;;;;;5.40;3.97;;;;;;;;;;10570158;28;20032;-80
2022/03/16 11:45:43;;;;;;;5.30;4.18;;;;;;;;;;10595588;28;20077;-80
2022/03/16 11:51:03;;;;;;;5.32;4.70;;;;;;;;;;10598800;28;20398;-82
2022/03/16 11:56:31;;;;;;;7.67;4.87;;;;;;;;;;10601747;28;20101;-81
2022/03/16 12:01:33;;;;;;;8.18;5.82;;;;;;;;;;10580330;28;20156;-82
2022/03/16 12:07:02;;;;;;;6.20;5.45;;;;;;;;;;10607044;28;20020;-81
2022/03/16 12:17:30;;;;;;;7.30;4.38;;;;;;;;;;10593830;28;20031;-82
2022/03/16 12:22:36;;;;;;;6.45;5.75;;;;;;;;;;10591676;28;20487;-83
2022/03/16 12:33:02;;;;;;;5.63;4.75;;;;;;;;;;10594547;28;20039;-83
2022/03/16 12:38:03;;;;;;;6.57;5.45;;;;;;;;;;10590133;28;20016;-83
2022/03/16 12:43:04;;;;;;;4.15;3.50;;;;;;;;;;10590612;28;20091;-83
2022/03/16 12:48:12;;;;;;;7.05;5.25;;;;;;;;;;10592608;28;20504;-82
2022/03/16 12:53:13;;;;;;;5.30;4.32;;;;;;;;;;10592852;28;20027;-85
2022/03/16 12:58:23;;;;;;;5.05;4.03;;;;;;;;;;10595837;28;20046;-84
2022/03/16 13:03:24;;;;;;;5.20;4.07;;;;;;;;;;10601267;28;20024;-85
2022/03/16 13:08:25;;;;;;;7.35;5.20;;;;;;;;;;10599858;28;20055;-84
2022/03/16 13:13:27;;;;;;;5.82;5.18;;;;;;;;;;10599424;28;20043;-85
2022/03/16 13:18:33;;;;;;;6.50;4.45;;;;;;;;;;10604713;28;20031;-85
2022/03/16 13:23:34;;;;;;;3.95;3.17;;;;;;;;;;10603917;28;20095;-85
2022/03/16 13:28:35;;;;;;;5.38;4.47;;;;;;;;;;10621591;28;20024;-86
2022/03/16 13:33:36;;;;;;;4.30;3.47;;;;;;;;;;10615905;28;20038;-85
2022/03/16 13:38:37;;;;;;;5.03;4.28;;;;;;;;;;10614287;28;20051;-85
2022/03/16 13:43:38;;;;;;;7.22;5.63;;;;;;;;;;10601645;28;20027;-85
2022/03/16 13:48:40;;;;;;;5.20;4.35;;;;;;;;;;10613457;28;20031;-86
2022/03/16 13:53:49;;;;;;;5.68;3.63;;;;;;;;;;10609547;28;20023;-85
2022/03/16 13:58:56;;;;;;;7.53;6.60;;;;;;;;;;10595734;28;20026;-85
2022/03/16 14:04:04;;;;;;;4.80;4.30;;;;;;;;;;10592580;28;20024;-83
2022/03/16 14:09:22;;;;;;;5.75;4.70;;;;;;;;;;10592791;28;20091;-83
2022/03/16 14:14:23;;;;;;;6.07;5.20;;;;;;;;;;10593741;28;20043;-84
2022/03/16 14:19:26;;;;;;;7.88;6.82;;;;;;;;;;10598026;28;20090;-83
2022/03/16 14:24:27;;;;;;;6.68;5.03;;;;;;;;;;10610700;28;20028;-82
2022/03/16 14:29:31;;;;;;;5.60;5.03;;;;;;;;;;10611244;28;20042;-85
2022/03/16 14:34:32;;;;;;;5.10;4.50;;;;;;;;;;10612265;28;20027;-83
2022/03/16 14:39:34;;;;;;;5.28;4.47;;;;;;;;;;10611768;28;20031;-83
2022/03/16 14:44:35;;;;;;;4.03;3.40;;;;;;;;;;10604848;28;20123;-84
2022/03/16 14:49:36;;;;;;;5.82;3.40;;;;;;;;;;10592192;28;20159;-82
2022/03/16 14:54:37;;;;;;;5.28;3.83;;;;;;;;;;10594407;28;20020;-82
2022/03/16 14:59:38;;;;;;;7.97;5.82;;;;;;;;;;10592527;28;20020;-82
2022/03/16 15:04:41;;;;;;;6.93;5.00;;;;;;;;;;10594420;28;20024;-82
2022/03/16 15:09:42;;;;;;;5.68;4.38;;;;;;;;;;10595851;28;20023;-83
2022/03/16 15:14:43;;;;;;;6.75;5.40;;;;;;;;;;10596422;28;20023;-84
2022/03/16 15:19:44;;;;;;;5.72;5.03;;;;;;;;;;10596975;28;20026;-82
2022/03/16 15:24:45;;;;;;;5.93;3.45;;;;;;;;;;10604398;28;20019;-80
2022/03/16 15:29:46;;;;;;;5.68;3.78;;;;;;;;;;10606637;28;20016;-82
2022/03/16 15:34:48;;;;;;;4.22;3.10;;;;;;;;;;10601924;28;20032;-80
2022/03/16 15:45:09;;;;;;;4.78;4.00;;;;;;;;;;10602874;28;20060;-83
2022/03/16 15:50:12;;;;;;;5.55;4.95;;;;;;;;;;10603197;28;20019;-81
2022/03/16 15:55:13;;;;;;;4.82;3.10;;;;;;;;;;10601935;28;20020;-82
2022/03/16 16:00:15;;;;;;;5.07;4.57;;;;;;;;;;10600876;28;20524;-82
2022/03/16 16:05:17;;;;;;;6.20;4.43;;;;;;;;;;10599354;28;20088;-82
2022/03/16 16:10:18;;;;;;;8.23;5.55;;;;;;;;;;10599341;28;20033;-83
2022/03/16 16:15:19;;;;;;;6.35;5.63;;;;;;;;;;10599943;28;20073;-81
2022/03/16 16:20:23;;;;;;;9.95;7.93;;;;;;;;;;10615590;28;20023;-81
2022/03/16 16:25:30;;;;;;;4.88;4.05;;;;;;;;;;10614967;28;20016;-80
2022/03/16 16:30:33;;;;;;;6.20;5.22;;;;;;;;;;10612724;28;20031;-82
2022/03/16 16:35:34;;;;;;;7.65;5.53;;;;;;;;;;10604247;28;20024;-82
2022/03/16 16:40:35;;;;;;;6.93;5.82;;;;;;;;;;10603052;28;20448;-81
2022/03/16 16:45:36;;;;;;;;;;;;;;;;;;10604317;28;20098;-82
2022/03/16 16:50:38;;;;;;;6.28;5.47;;;;;;;;;;10602399;28;19952;-82
2022/03/16 16:55:39;;;;;;;4.07;3.63;;;;;;;;;;10596840;28;20023;-81
2022/03/16 17:00:41;;;;;;;;;;;;;;;;;;10599714;28;20351;-81
2022/03/16 17:05:44;;;;;;;6.15;5.07;;;;;;;;;;10594807;28;19904;-82
2022/03/16 17:10:46;;;;;;;7.32;6.20;;;;;;;;;;10596025;28;20051;-82
2022/03/16 17:15:51;;;;;;;3.95;2.88;;;;;;;;;;10595117;28;20038;-80
2022/03/16 17:20:53;;;;;;;3.85;2.90;;;;;;;;;;10583278;28;20028;-77
2022/03/16 17:25:55;;;;;;;9.02;5.57;;;;;;;;;;10586282;28;20340;-78
2022/03/16 17:30:57;;;;;;;5.30;3.30;;;;;;;;;;10577782;22;20061;-76
2022/03/16 17:35:59;;;;;;;4.35;3.33;;;;;;;;;;10438968;28;20036;-77
2022/03/16 17:46:37;;;;;;;7.40;5.63;;;;;;;;;;10414432;28;20041;-80
2022/03/16 17:51:38;;;;;;;5.88;4.00;;;;;;;;;;10464206;28;20100;-80
2022/03/16 17:56:45;;;;;;;5.32;4.25;;;;;;;;;;10470995;28;20025;-82
2022/03/16 18:01:50;;;;;;;6.45;4.45;;;;;;;;;;10466833;28;20135;-82
2022/03/16 18:06:56;;;;;;;5.18;4.32;;;;;;;;;;10464865;28;20078;-81
2022/03/16 18:17:18;;;;;;;7.50;5.90;;;;;;;;;;10464538;28;20025;-79
2022/03/16 18:22:30;;;;;;;8.45;7.35;;;;;;;;;;10461894;28;20033;-82
2022/03/16 18:27:34;;;;;;;8.50;7.63;;;;;;;;;;10465675;28;20041;-82
2022/03/16 18:32:35;;;;;;;8.13;6.70;;;;;;;;;;10468258;28;20033;-82
2022/03/16 18:37:37;;;;;;;8.98;7.57;;;;;;;;;;10472036;28;20037;-82
2022/03/16 18:42:39;;;;;;;9.43;7.75;;;;;;;;;;10467364;28;20033;-81
2022/03/16 18:47:40;;;;;;;8.30;7.22;;;;;;;;;;10469009;28;20029;-80
2022/03/16 18:52:41;;;;;;;10.05;8.10;;;;;;;;;;10465876;28;20439;-80
2022/03/16 18:57:42;;;;;;;10.05;8.27;;;;;;;;;;10464423;28;20024;-81
2022/03/16 19:02:43;;;;;;;;;;;;;;;;;;10465162;28;20136;-79
2022/03/16 19:07:50;;;;;;;7.65;6.72;;;;;;;;;;10466069;28;19999;-80
2022/03/16 19:18:11;;;;;;;10.02;8.98;;;;;;;;;;10467962;28;20524;-81
2022/03/16 19:23:12;;;;;;;9.27;7.30;;;;;;;;;;10464180;28;20031;-84
2022/03/16 19:28:13;;;;;;;9.82;8.57;;;;;;;;;;10464968;28;20494;-84
2022/03/16 19:33:14;;;;;;;;;;;;;;;;;;10465516;28;20052;-79
2022/03/16 19:38:15;;;;;;;7.38;6.57;;;;;;;;;;10465352;28;19905;-82
2022/03/16 19:43:16;;;;;;;10.23;7.40;;;;;;;;;;10465038;28;20059;-82
2022/03/16 19:48:27;;;;;;;8.77;6.93;;;;;;;;;;10467408;28;20059;-80
2022/03/16 19:53:32;;;;;;;7.80;6.90;;;;;;;;;;10460042;28;20333;-83
2022/03/16 19:58:33;;;;;;;7.40;6.57;;;;;;;;;;10463251;28;20036;-81
2022/03/16 20:03:36;;;;;;;6.80;5.93;;;;;;;;;;10464562;28;20041;-80
2022/03/16 20:08:39;;;;;;;8.00;6.82;;;;;;;;;;10467418;28;20021;-79
2022/03/16 20:13:40;;;;;;;8.05;7.18;;;;;;;;;;10475619;28;20049;-80
2022/03/16 20:18:42;;;;;;;6.82;6.13;;;;;;;;;;10476031;28;20114;-80
2022/03/16 20:23:43;;;;;;;7.70;6.90;;;;;;;;;;10464900;28;20052;-78
2022/03/16 20:28:44;;;;;;;9.35;7.55;;;;;;;;;;10481857;28;20048;-80
